Time;durP1;ratioP1;P1;durP2;ratioP2;P2;SDS_P1;SDS_P2;PMS_P1;PMS_P2;Temp;Humidity;BMP_temperature;BMP_pressure;BME280_temperature;BME280_humidity;BME280_pressure;Samples;Min_cycle;Max_cycle;Signal;HPM_P1;HPM_P2
2022/07/01 00:00:53;;;;;;;10.65;5.90;;;20.90;99.90;;;;;;10350059;28;20237;-81
2022/07/01 00:06:16;;;;;;;7.68;6.38;;;20.90;99.90;;;;;;10345380;28;20233;-81
2022/07/01 00:11:37;;;;;;;6.93;6.20;;;20.80;99.90;;;;;;10360051;28;20198;-81
2022/07/01 00:23:16;;;;;;;5.97;5.10;;;20.80;99.90;;;;;;10370775;28;20233;-78
2022/07/01 00:28:38;;;;;;;6.38;5.70;;;20.80;99.90;;;;;;10358702;28;20200;-79
2022/07/01 00:33:59;;;;;;;6.28;5.65;;;20.70;99.90;;;;;;10359529;28;20190;-81
2022/07/01 00:39:24;;;;;;;7.10;6.07;;;20.80;99.90;;;;;;10344227;28;20233;-80
2022/07/01 00:44:45;;;;;;;9.88;5.82;;;20.80;99.90;;;;;;10359194;28;20238;-80
2022/07/01 00:50:09;;;;;;;9.30;7.38;;;20.80;99.90;;;;;;10358957;28;20213;-79
2022/07/01 00:55:30;;;;;;;9.98;7.55;;;20.70;99.90;;;;;;10364944;28;20396;-81
2022/07/01 01:00:53;;;;;;;8.35;6.90;;;20.60;99.90;;;;;;10375655;28;20397;-80
2022/07/01 01:06:40;;;;;;;8.73;6.75;;;20.60;99.90;;;;;;10356856;28;20268;-80
2022/07/01 01:12:02;;;;;;;7.82;6.82;;;20.60;99.90;;;;;;10343961;28;20201;-81
2022/07/01 01:17:24;;;;;;;9.93;6.85;;;20.60;99.90;;;;;;10357220;28;20236;-81
2022/07/01 01:22:49;;;;;;;9.75;8.20;;;20.60;99.90;;;;;;10358955;28;20221;-81
2022/07/01 01:28:11;;;;;;;10.75;8.05;;;20.50;99.90;;;;;;10356918;28;20212;-77
2022/07/01 01:33:32;;;;;;;9.73;8.73;;;20.40;99.90;;;;;;10357430;28;20393;-76
2022/07/01 01:38:57;;;;;;;10.10;9.02;;;20.30;99.90;;;;;;10357091;28;20197;-81
2022/07/01 01:44:18;;;;;;;8.93;8.00;;;20.10;99.90;;;;;;10355865;28;20305;-78
2022/07/01 01:49:40;;;;;;;9.55;8.10;;;20.20;99.90;;;;;;10356472;28;20198;-78
2022/07/01 01:55:01;;;;;;;9.13;8.15;;;20.20;99.90;;;;;;10357273;28;20214;-81
2022/07/01 02:00:23;;;;;;;10.90;8.77;;;20.20;99.90;;;;;;10364624;28;20221;-80
2022/07/01 02:05:44;;;;;;;12.70;8.38;;;20.20;99.90;;;;;;10355778;28;20221;-81
2022/07/01 02:11:08;;;;;;;9.55;8.52;;;20.30;99.90;;;;;;10348792;28;20374;-81
2022/07/01 02:16:29;;;;;;;9.80;7.82;;;20.30;99.90;;;;;;10354856;28;20245;-82
2022/07/01 02:21:51;;;;;;;9.25;8.18;;;20.30;99.90;;;;;;10355811;28;20414;-80
2022/07/01 02:27:12;;;;;;;9.02;7.38;;;20.30;99.90;;;;;;10354603;28;20189;-81
2022/07/01 02:32:34;;;;;;;10.40;7.28;;;20.40;99.90;;;;;;10355240;28;20193;-81
2022/07/01 02:37:55;;;;;;;10.02;7.53;;;20.50;99.90;;;;;;10355258;28;20434;-81
2022/07/01 02:43:18;;;;;;;16.35;7.65;;;20.50;99.90;;;;;;10369115;28;20244;-81
2022/07/01 02:48:40;;;;;;;8.20;7.40;;;20.50;99.90;;;;;;10355111;28;20218;-81
2022/07/01 02:54:04;;;;;;;10.88;8.45;;;20.50;99.90;;;;;;10340044;28;20257;-81
2022/07/01 02:59:26;;;;;;;10.18;8.05;;;20.50;99.90;;;;;;10367073;28;20265;-81
2022/07/01 03:04:48;;;;;;;8.68;7.78;;;20.50;99.90;;;;;;10354331;28;20217;-81
2022/07/01 03:10:10;;;;;;;10.98;7.85;;;20.50;99.90;;;;;;10353737;28;20201;-80
2022/07/01 03:15:31;;;;;;;9.30;8.25;;;20.50;99.90;;;;;;10352949;28;20255;-81
2022/07/01 03:20:53;;;;;;;10.27;8.07;;;20.50;99.90;;;;;;10354369;28;20214;-81
2022/07/01 03:26:14;;;;;;;11.80;7.60;;;20.50;99.90;;;;;;10353451;28;20269;-82
2022/07/01 03:31:36;;;;;;;7.68;6.88;;;20.50;99.90;;;;;;10360158;28;20201;-82
2022/07/01 03:36:57;;;;;;;8.10;6.72;;;20.50;99.90;;;;;;10360895;28;20194;-82
2022/07/01 03:42:19;;;;;;;7.80;7.00;;;20.60;99.90;;;;;;10360957;28;20221;-82
2022/07/01 03:47:46;;;;;;;8.90;7.40;;;20.60;99.90;;;;;;10360201;28;20221;-81
2022/07/01 03:58:48;;;;;;;13.32;9.10;;;20.90;99.90;;;;;;10360931;28;20202;-82
2022/07/01 04:04:10;;;;;;;15.38;9.40;;;20.90;99.90;;;;;;10376039;28;20252;-82
2022/07/01 04:09:31;;;;;;;13.00;8.70;;;21.00;99.90;;;;;;10355912;28;20206;-79
2022/07/01 04:14:52;;;;;;;10.82;7.50;;;21.00;99.90;;;;;;10359604;28;20232;-76
2022/07/01 04:20:14;;;;;;;9.02;7.30;;;21.10;99.90;;;;;;10360318;28;20202;-76
2022/07/01 04:25:35;;;;;;;10.75;7.55;;;21.10;99.90;;;;;;10371509;28;20205;-78
2022/07/01 04:30:57;;;;;;;13.68;9.00;;;21.20;99.90;;;;;;10345318;28;20264;-77
2022/07/01 04:36:18;;;;;;;15.77;8.70;;;21.20;99.90;;;;;;10358168;28;20197;-81
2022/07/01 04:47:22;;;;;;;13.88;8.02;;;21.30;99.90;;;;;;10357620;28;20233;-81
2022/07/01 04:52:43;;;;;;;16.30;8.98;;;21.40;99.90;;;;;;10358157;28;20198;-81
2022/07/01 04:58:04;;;;;;;8.82;7.70;;;21.50;99.90;;;;;;10349476;28;20198;-81
2022/07/01 05:03:26;;;;;;;10.93;9.07;;;21.50;99.90;;;;;;10330193;28;20415;-81
2022/07/01 05:08:47;;;;;;;8.52;7.28;;;21.60;95.60;;;;;;10357996;28;20200;-79
2022/07/01 05:14:09;;;;;;;8.45;7.65;;;21.80;91.70;;;;;;10358128;28;20554;-81
2022/07/01 05:25:10;;;;;;;9.55;8.15;;;22.10;67.50;;;;;;10357601;28;20267;-80
2022/07/01 05:30:32;;;;;;;10.18;8.15;;;22.20;44.30;;;;;;10317358;28;20249;-78
2022/07/01 05:35:54;;;;;;;14.55;8.20;;;22.30;44.90;;;;;;10320917;28;20424;-79
2022/07/01 05:41:16;;;;;;;9.07;7.85;;;22.40;40.60;;;;;;10356801;28;20225;-79
2022/07/01 05:46:37;;;;;;;10.20;7.72;;;22.60;35.50;;;;;;10356461;28;20221;-79
2022/07/01 05:51:59;;;;;;;11.70;7.32;;;22.80;18.20;;;;;;10355266;28;20221;-79
2022/07/01 05:57:20;;;;;;;12.00;7.70;;;23.00;1.00;;;;;;10360000;28;20198;-78
2022/07/01 06:02:41;;;;;;;8.10;6.13;;;23.20;1.00;;;;;;10356145;28;20389;-80
2022/07/01 06:08:03;;;;;;;8.88;6.57;;;23.60;1.00;;;;;;10353667;28;20196;-80
2022/07/01 06:13:24;;;;;;;7.53;6.30;;;23.70;1.00;;;;;;10354952;28;20198;-80
2022/07/01 06:18:46;;;;;;;12.32;7.47;;;24.00;1.00;;;;;;10355282;28;20190;-83
2022/07/01 06:24:07;;;;;;;10.80;7.80;;;24.20;1.00;;;;;;10354186;28;20237;-82
2022/07/01 06:29:29;;;;;;;8.45;6.97;;;24.40;1.00;;;;;;10354293;28;20462;-81
2022/07/01 06:34:52;;;;;;;16.52;7.57;;;24.70;1.00;;;;;;10355078;28;20387;-82
2022/07/01 06:40:13;;;;;;;9.52;7.57;;;25.10;1.00;;;;;;10354452;28;20209;-81
2022/07/01 06:45:34;;;;;;;10.82;7.00;;;25.50;1.00;;;;;;10353638;28;20238;-81
2022/07/01 06:50:55;;;;;;;17.58;8.02;;;25.90;1.00;;;;;;10354568;28;20349;-81
2022/07/01 06:56:18;;;;;;;12.13;7.25;;;26.40;1.00;;;;;;10367543;28;20216;-81
2022/07/01 07:01:39;;;;;;;8.55;6.20;;;27.00;1.00;;;;;;10344346;28;20240;-80
2022/07/01 07:07:01;;;;;;;8.77;5.82;;;27.60;1.00;;;;;;10360990;28;20225;-81
2022/07/01 07:12:22;;;;;;;10.75;6.68;;;28.20;1.00;;;;;;10361784;28;20190;-80
2022/07/01 07:17:44;;;;;;;8.52;5.07;;;28.70;1.00;;;;;;10361532;28;20198;-81
2022/07/01 07:23:06;;;;;;;10.43;5.53;;;29.20;1.00;;;;;;10344510;28;20229;-80
2022/07/01 07:28:27;;;;;;;6.35;5.15;;;29.60;1.00;;;;;;10354790;28;20197;-77
2022/07/01 07:33:49;;;;;;;8.00;4.97;;;30.10;1.00;;;;;;10369656;28;20225;-78
2022/07/01 07:39:10;;;;;;;8.73;4.97;;;29.80;1.00;;;;;;10368568;28;20204;-80
2022/07/01 07:44:31;;;;;;;7.70;5.20;;;29.20;99.90;;;;;;10354597;28;20267;-77
2022/07/01 07:49:52;;;;;;;9.95;5.47;;;29.90;1.00;;;;;;10355844;28;20269;-79
2022/07/01 07:55:14;;;;;;;7.60;5.00;;;30.60;99.90;;;;;;10360094;28;20221;-79
2022/07/01 08:00:35;;;;;;;8.80;5.30;;;31.30;1.00;;;;;;10362698;28;20273;-84
2022/07/01 08:06:00;;;;;;;7.15;4.75;;;31.60;99.90;;;;;;10354579;28;20213;-78
2022/07/01 08:11:21;;;;;;;8.07;4.57;;;32.30;99.90;;;;;;10357070;28;20216;-81
2022/07/01 08:16:42;;;;;;;10.27;5.13;;;32.80;1.00;;;;;;10359353;28;20221;-77
2022/07/01 08:22:04;;;;;;;5.90;4.78;;;33.20;1.00;;;;;;10343482;28;20295;-75
2022/07/01 08:27:25;;;;;;;6.47;3.83;;;33.50;99.90;;;;;;10367190;28;20204;-81
2022/07/01 08:32:47;;;;;;;10.40;4.28;;;33.70;99.90;;;;;;10314744;28;20202;-80
2022/07/01 08:38:09;;;;;;;13.30;4.65;;;33.70;1.00;;;;;;10319152;28;20197;-79
2022/07/01 08:43:31;;;;;;;13.10;5.07;;;33.80;1.00;;;;;;10352194;28;20539;-79
2022/07/01 08:48:53;;;;;;;8.90;4.88;;;33.90;1.00;;;;;;10352404;28;20206;-75
2022/07/01 08:54:14;;;;;;;9.90;5.32;;;34.20;99.90;;;;;;10351720;28;20513;-75
2022/07/01 08:59:36;;;;;;;6.00;4.88;;;34.10;1.00;;;;;;10365559;28;20190;-80
2022/07/01 09:05:07;;;;;;;7.97;4.97;;;34.40;99.90;;;;;;10352191;28;20252;-82
2022/07/01 09:10:36;;;;;;;8.68;5.13;;;34.70;99.90;;;;;;10350135;28;20206;-80
2022/07/01 09:15:57;;;;;;;12.55;4.82;;;34.80;99.90;;;;;;10353086;28;20468;-80
2022/07/01 09:21:19;;;;;;;6.57;4.43;;;35.10;99.90;;;;;;10351177;28;20210;-79
2022/07/01 09:27:01;;;;;;;7.85;4.88;;;35.40;99.90;;;;;;10351884;28;20272;-77
2022/07/01 09:32:23;;;;;;;9.60;4.95;;;35.60;99.90;;;;;;10351992;28;20208;-84
2022/07/01 09:37:44;;;;;;;6.72;4.78;;;35.50;99.90;;;;;;10351023;28;20212;-77
2022/07/01 09:43:06;;;;;;;13.60;6.90;;;35.70;99.90;;;;;;10352604;28;20532;-77
2022/07/01 09:48:42;;;;;;;7.90;4.97;;;34.90;99.90;;;;;;10329033;28;20186;-77
2022/07/01 09:54:04;;;;;;;8.57;5.28;;;33.60;99.90;;;;;;10351988;28;20217;-76
2022/07/01 09:59:25;;;;;;;9.18;5.93;;;32.50;99.90;;;;;;10375017;28;20209;-78
2022/07/01 10:04:58;;;;;;;11.90;6.13;;;31.60;1.00;;;;;;10333211;28;20218;-75
2022/07/01 10:11:05;;;;;;;7.65;5.50;;;31.00;1.00;;;;;;10349589;28;20202;-76
2022/07/01 10:16:27;;;;;;;8.05;6.15;;;30.60;20.90;;;;;;10250611;29;20850;-76
2022/07/01 10:21:48;;;;;;;15.02;6.40;;;30.30;99.90;;;;;;10240880;28;20581;-75
2022/07/01 10:27:21;;;;;;;10.80;7.35;;;30.20;1.00;;;;;;10265485;29;20286;-74
2022/07/01 10:32:51;;;;;;;6.88;4.55;;;30.00;1.00;;;;;;10249834;29;20478;-76
2022/07/01 10:38:27;;;;;;;9.98;5.18;;;29.60;99.90;;;;;;10265646;28;20432;-78
2022/07/01 10:43:49;;;;;;;8.82;5.60;;;29.40;99.90;;;;;;10252015;29;20246;-77
2022/07/01 10:49:15;;;;;;;12.25;7.20;;;30.00;1.00;;;;;;10226170;28;20242;-76
2022/07/01 10:54:38;;;;;;;18.45;7.63;;;31.00;1.00;;;;;;10316493;28;20444;-75
2022/07/01 10:59:59;;;;;;;8.65;6.75;;;31.20;1.00;;;;;;10310060;28;20242;-80
2022/07/01 11:05:22;;;;;;;11.10;6.88;;;31.10;1.00;;;;;;10304282;28;20244;-76
2022/07/01 11:10:44;;;;;;;11.25;7.65;;;31.10;26.50;;;;;;10336217;28;20435;-75
2022/07/01 11:16:05;;;;;;;18.75;8.80;;;31.80;99.90;;;;;;10323961;28;20352;-77
2022/07/01 11:21:27;;;;;;;9.73;6.60;;;32.40;99.90;;;;;;10348490;28;20270;-77
2022/07/01 11:26:49;;;;;;;13.38;6.85;;;32.70;99.90;;;;;;10328765;28;20207;-75
2022/07/01 11:32:11;;;;;;;17.58;6.78;;;33.20;99.90;;;;;;10348144;28;20201;-77
2022/07/01 11:43:19;;;;;;;11.93;7.32;;;33.50;1.00;;;;;;10348003;28;20249;-77
2022/07/01 11:48:42;;;;;;;11.15;7.40;;;33.90;99.90;;;;;;10334280;28;20221;-77
2022/07/01 11:54:04;;;;;;;9.27;6.25;;;34.40;1.00;;;;;;10356461;28;20194;-78
2022/07/01 11:59:28;;;;;;;9.75;6.90;;;34.40;1.00;;;;;;10373170;28;20395;-78
2022/07/01 12:04:51;;;;;;;9.23;6.18;;;34.40;99.90;;;;;;10358392;28;20571;-76
2022/07/01 12:10:16;;;;;;;9.73;7.32;;;34.60;99.90;;;;;;10354705;28;20210;-78
2022/07/01 12:15:38;;;;;;;11.75;7.65;;;34.60;99.90;;;;;;10354693;28;20221;-76
2022/07/01 12:21:00;;;;;;;13.85;7.38;;;34.40;99.90;;;;;;10353923;28;20202;-78
2022/07/01 12:26:22;;;;;;;10.88;7.85;;;34.40;99.90;;;;;;10354427;28;20272;-76
2022/07/01 12:31:53;;;;;;;12.15;8.27;;;34.40;99.90;;;;;;10327928;28;20190;-77
2022/07/01 12:37:26;;;;;;;11.88;7.32;;;34.20;99.90;;;;;;10354998;28;20520;-76
2022/07/01 12:42:47;;;;;;;9.38;7.88;;;33.80;1.00;;;;;;10353881;28;20284;-79
2022/07/01 12:48:09;;;;;;;10.82;9.10;;;33.70;1.00;;;;;;10353694;28;20230;-77
2022/07/01 12:53:30;;;;;;;12.98;9.35;;;33.40;1.00;;;;;;10353071;28;20212;-79
2022/07/01 12:58:53;;;;;;;12.27;10.65;;;32.60;99.90;;;;;;10343789;28;20223;-77
2022/07/01 13:04:26;;;;;;;13.35;10.90;;;32.10;99.90;;;;;;10351936;28;20594;-76
2022/07/01 13:09:51;;;;;;;13.52;10.75;;;32.10;99.90;;;;;;10339329;28;20216;-75
2022/07/01 13:15:18;;;;;;;11.43;10.32;;;32.20;1.00;;;;;;10320184;28;20229;-75
2022/07/01 13:20:41;;;;;;;13.60;9.35;;;32.40;1.00;;;;;;10336421;28;20245;-77
2022/07/01 13:26:02;;;;;;;10.35;9.35;;;32.50;99.90;;;;;;10329541;28;20229;-76
2022/07/01 13:31:23;;;;;;;12.95;9.52;;;32.80;1.00;;;;;;10353000;28;20197;-77
2022/07/01 13:36:45;;;;;;;17.50;10.05;;;33.10;1.00;;;;;;10319569;28;20194;-76
2022/07/01 13:42:07;;;;;;;19.83;10.50;;;33.20;1.00;;;;;;10350391;28;20217;-77
2022/07/01 13:47:28;;;;;;;14.63;9.45;;;33.10;1.00;;;;;;10352823;28;20421;-76
2022/07/01 13:52:50;;;;;;;13.07;8.93;;;32.90;99.90;;;;;;10353202;28;20768;-77
2022/07/01 13:58:13;;;;;;;10.60;8.60;;;32.70;99.90;;;;;;10368314;28;20201;-76
2022/07/01 14:03:34;;;;;;;10.65;8.57;;;32.80;1.00;;;;;;10352692;28;20548;-77
2022/07/01 14:08:56;;;;;;;13.05;8.77;;;32.60;99.90;;;;;;10351762;28;20440;-77
2022/07/01 14:14:17;;;;;;;12.27;9.18;;;32.60;99.90;;;;;;10351057;28;20194;-77
2022/07/01 14:19:39;;;;;;;11.48;8.90;;;32.60;99.90;;;;;;10349628;28;20202;-77
2022/07/01 14:25:00;;;;;;;15.10;8.65;;;32.50;42.00;;;;;;10349601;28;20272;-78
2022/07/01 14:30:22;;;;;;;12.32;9.00;;;32.20;99.90;;;;;;10351261;28;20202;-79
2022/07/01 14:35:44;;;;;;;9.57;7.50;;;32.20;99.90;;;;;;10383128;28;20308;-77
2022/07/01 14:41:05;;;;;;;14.27;8.43;;;32.20;1.00;;;;;;10351074;28;20212;-77
2022/07/01 14:46:27;;;;;;;9.88;7.93;;;32.20;99.90;;;;;;10350193;28;20256;-79
2022/07/01 14:51:49;;;;;;;17.20;7.40;;;32.30;99.90;;;;;;10347970;28;20312;-78
2022/07/01 14:57:11;;;;;;;17.58;7.00;;;32.00;99.90;;;;;;10365307;28;20223;-79
2022/07/01 15:02:33;;;;;;;10.68;6.97;;;31.60;1.00;;;;;;10348816;28;20228;-79
2022/07/01 15:07:55;;;;;;;10.27;7.10;;;31.60;69.80;;;;;;10350735;28;20235;-83
2022/07/01 15:13:16;;;;;;;10.57;7.00;;;31.50;99.90;;;;;;10336648;28;20440;-77
2022/07/01 15:18:37;;;;;;;9.68;6.95;;;31.30;99.90;;;;;;10353767;28;20376;-76
2022/07/01 15:23:59;;;;;;;11.70;7.82;;;31.20;99.90;;;;;;10355680;28;20543;-76
2022/07/01 15:29:21;;;;;;;9.30;7.82;;;31.10;99.90;;;;;;10362277;28;20253;-76
2022/07/01 15:34:42;;;;;;;7.47;6.68;;;31.10;99.90;;;;;;10359943;28;20300;-76
2022/07/01 15:40:05;;;;;;;9.40;6.85;;;30.90;99.90;;;;;;10371185;28;20395;-80
2022/07/01 15:45:26;;;;;;;7.07;6.38;;;30.60;1.00;;;;;;10339048;28;20242;-79
2022/07/01 15:50:49;;;;;;;9.90;5.72;;;30.50;99.90;;;;;;10360483;28;20194;-80
2022/07/01 15:56:10;;;;;;;13.55;6.63;;;30.30;99.90;;;;;;10372090;28;20201;-78
2022/07/01 16:01:32;;;;;;;9.98;6.47;;;30.20;1.00;;;;;;10375360;28;20205;-77
2022/07/01 16:06:53;;;;;;;7.70;6.43;;;30.10;60.90;;;;;;10360180;28;20221;-77
2022/07/01 16:12:15;;;;;;;10.00;6.57;;;29.90;1.00;;;;;;10360965;28;20375;-76
2022/07/01 16:17:37;;;;;;;17.98;6.90;;;29.60;1.00;;;;;;10360510;28;20198;-80
2022/07/01 16:23:00;;;;;;;13.45;6.28;;;29.40;99.90;;;;;;10360347;28;20400;-79
2022/07/01 16:28:22;;;;;;;19.42;8.85;;;29.10;1.00;;;;;;10360242;28;20209;-77
2022/07/01 16:33:44;;;;;;;18.45;9.68;;;28.50;1.00;;;;;;10359874;28;20252;-77
2022/07/01 16:39:19;;;;;;;17.67;5.93;;;25.30;74.90;;;;;;10357624;28;20381;-76
2022/07/01 16:44:59;;;;;;;11.43;4.40;;;23.30;99.90;;;;;;10358614;28;20241;-78
2022/07/01 16:50:23;;;;;;;5.57;2.75;;;21.70;99.90;;;;;;10358549;28;20201;-78
2022/07/01 16:55:45;;;;;;;4.57;2.50;;;20.90;99.90;;;;;;10351541;28;20205;-78
2022/07/01 17:01:08;;;;;;;4.70;3.22;;;20.60;99.90;;;;;;10363471;28;20198;-78
2022/07/01 17:06:32;;;;;;;7.65;4.45;;;20.50;99.90;;;;;;10357942;28;20233;-80
2022/07/01 17:11:54;;;;;;;5.00;3.53;;;20.70;99.90;;;;;;10358748;28;20194;-78
2022/07/01 17:17:21;;;;;;;7.13;4.47;;;20.90;99.90;;;;;;10357368;28;20202;-76
2022/07/01 17:22:54;;;;;;;8.80;5.20;;;21.00;99.90;;;;;;10358181;28;20205;-76
2022/07/01 17:28:44;;;;;;;7.78;4.28;;;20.90;99.90;;;;;;10358043;28;20197;-74
2022/07/01 17:34:09;;;;;;;5.72;3.78;;;20.90;99.90;;;;;;10357668;28;20200;-74
2022/07/01 17:39:35;;;;;;;5.68;4.72;;;20.90;99.90;;;;;;10342720;28;20243;-75
2022/07/01 17:45:04;;;;;;;5.20;4.10;;;20.90;99.90;;;;;;10357084;28;20300;-77
2022/07/01 17:50:27;;;;;;;8.75;4.78;;;20.90;99.90;;;;;;10356738;28;20256;-80
2022/07/01 17:55:49;;;;;;;9.77;4.80;;;20.80;99.90;;;;;;10364970;28;20208;-75
2022/07/01 18:01:17;;;;;;;6.57;3.90;;;20.90;99.90;;;;;;10345399;28;20205;-75
2022/07/01 18:06:39;;;;;;;6.00;3.97;;;20.80;99.90;;;;;;10356446;28;20217;-78
2022/07/01 18:12:21;;;;;;;7.28;3.83;;;20.80;99.90;;;;;;10355502;28;20204;-80
2022/07/01 18:17:56;;;;;;;5.22;3.58;;;20.90;99.90;;;;;;10356016;28;20372;-78
2022/07/01 18:23:31;;;;;;;8.38;5.72;;;20.80;99.90;;;;;;10354979;28;20284;-78
2022/07/01 18:28:59;;;;;;;7.18;4.72;;;20.70;99.90;;;;;;10340924;28;20205;-77
2022/07/01 18:34:55;;;;;;;8.65;4.55;;;20.70;99.90;;;;;;10341125;28;20241;-78
2022/07/01 18:40:18;;;;;;;4.35;3.63;;;20.60;99.90;;;;;;10354529;28;20198;-78
2022/07/01 18:45:39;;;;;;;6.72;4.47;;;20.50;99.90;;;;;;10353725;28;20292;-76
2022/07/01 18:51:01;;;;;;;4.35;3.80;;;20.60;99.90;;;;;;10340320;28;20201;-78
2022/07/01 18:56:22;;;;;;;5.47;4.03;;;20.60;99.90;;;;;;10367372;28;20207;-75
2022/07/01 19:01:43;;;;;;;4.78;4.38;;;20.50;99.90;;;;;;10314158;28;20190;-78
2022/07/01 19:07:04;;;;;;;5.13;4.10;;;20.50;99.90;;;;;;10314818;28;20245;-79
2022/07/01 19:12:26;;;;;;;4.55;3.90;;;20.50;99.90;;;;;;10314174;28;20201;-79
2022/07/01 19:17:48;;;;;;;7.78;4.25;;;20.50;99.90;;;;;;10314515;28;20202;-79
2022/07/01 19:23:09;;;;;;;4.53;4.10;;;20.70;99.90;;;;;;10314574;28;20222;-80
2022/07/01 19:28:31;;;;;;;3.60;3.28;;;20.70;99.90;;;;;;10314266;28;20205;-76
2022/07/01 19:33:52;;;;;;;4.70;4.00;;;20.80;99.90;;;;;;10316557;28;20202;-79
2022/07/01 19:39:13;;;;;;;7.50;4.68;;;20.80;99.90;;;;;;10314190;28;20357;-78
2022/07/01 19:44:35;;;;;;;4.65;4.25;;;20.80;99.90;;;;;;10328975;28;20265;-79
2022/07/01 19:49:56;;;;;;;5.28;4.72;;;20.80;99.90;;;;;;10326547;28;20244;-79
2022/07/01 19:55:17;;;;;;;6.72;4.45;;;20.90;99.90;;;;;;10321739;28;20496;-77
2022/07/01 20:00:39;;;;;;;4.43;4.03;;;20.90;99.90;;;;;;10362655;28;20265;-76
2022/07/01 20:06:00;;;;;;;5.22;4.80;;;20.90;99.90;;;;;;10353674;28;20221;-78
2022/07/01 20:11:22;;;;;;;5.72;5.22;;;20.80;99.90;;;;;;10342054;28;20202;-76
2022/07/01 20:16:43;;;;;;;7.63;6.28;;;20.80;99.90;;;;;;10359909;28;20264;-76
2022/07/01 20:22:05;;;;;;;8.38;6.00;;;20.80;99.90;;;;;;10360613;28;20240;-75
2022/07/01 20:27:26;;;;;;;7.55;6.63;;;20.70;99.90;;;;;;10359041;28;20353;-75
2022/07/01 20:32:47;;;;;;;7.13;6.18;;;20.70;99.90;;;;;;10360329;28;20451;-76
2022/07/01 20:38:09;;;;;;;8.48;6.78;;;20.70;99.90;;;;;;10358491;28;20225;-75
2022/07/01 20:43:30;;;;;;;9.68;8.75;;;20.70;99.90;;;;;;10359500;28;20214;-74
2022/07/01 20:48:52;;;;;;;12.23;8.95;;;20.60;99.90;;;;;;10358689;28;20209;-75
2022/07/01 20:54:13;;;;;;;12.30;9.70;;;20.60;99.90;;;;;;10359185;28;20213;-76
2022/07/01 20:59:35;;;;;;;11.38;10.18;;;20.50;99.90;;;;;;10373489;28;20212;-79
2022/07/01 21:04:56;;;;;;;12.93;11.35;;;20.40;99.90;;;;;;10358136;28;20232;-78
2022/07/01 21:10:17;;;;;;;13.52;12.15;;;20.40;99.90;;;;;;10357900;28;20193;-78
2022/07/01 21:15:38;;;;;;;11.85;10.65;;;20.30;99.90;;;;;;10358597;28;20587;-79
2022/07/01 21:21:00;;;;;;;9.95;8.93;;;20.20;99.90;;;;;;10357653;28;20547;-79
2022/07/01 21:26:21;;;;;;;8.98;8.00;;;20.20;99.90;;;;;;10358212;28;20225;-75
2022/07/01 21:31:43;;;;;;;10.63;7.95;;;20.30;99.90;;;;;;10356851;28;20201;-80
2022/07/01 21:37:04;;;;;;;9.15;8.15;;;20.20;99.90;;;;;;10357426;28;20258;-76
2022/07/01 21:42:29;;;;;;;6.97;6.28;;;20.10;99.90;;;;;;10356761;28;20245;-78
2022/07/01 21:47:51;;;;;;;7.47;6.78;;;20.10;99.90;;;;;;10357340;28;20241;-80
2022/07/01 21:53:13;;;;;;;8.25;6.90;;;20.20;99.90;;;;;;10355849;28;20225;-79
2022/07/01 21:58:36;;;;;;;10.02;7.30;;;20.20;99.90;;;;;;10371068;28;20388;-80
2022/07/01 22:03:59;;;;;;;10.88;7.45;;;20.10;99.90;;;;;;10356602;28;20272;-76
2022/07/01 22:09:28;;;;;;;8.38;7.32;;;20.00;99.90;;;;;;10371619;28;20205;-79
2022/07/01 22:14:56;;;;;;;7.75;6.50;;;20.00;99.90;;;;;;10355544;28;20202;-78
2022/07/01 22:20:18;;;;;;;6.28;5.55;;;20.00;99.90;;;;;;10357387;28;20364;-78
2022/07/01 22:25:40;;;;;;;7.22;6.30;;;20.00;99.90;;;;;;10354883;28;20229;-79
2022/07/01 22:31:04;;;;;;;9.00;5.68;;;19.90;99.90;;;;;;10354860;28;20388;-76
2022/07/01 22:36:26;;;;;;;8.15;6.18;;;19.90;99.90;;;;;;10370396;28;20298;-79
2022/07/01 22:41:50;;;;;;;5.95;5.28;;;19.90;99.90;;;;;;10354584;28;20205;-78
2022/07/01 22:47:13;;;;;;;5.90;5.15;;;19.80;99.90;;;;;;10355311;28;20238;-75
2022/07/01 22:52:59;;;;;;;10.60;5.70;;;19.80;99.90;;;;;;10339987;28;20198;-77
2022/07/01 22:58:48;;;;;;;6.65;5.20;;;19.70;99.90;;;;;;10355216;28;20209;-75
2022/07/01 23:04:13;;;;;;;5.35;4.82;;;19.70;99.90;;;;;;10353783;28;20459;-79
2022/07/01 23:10:08;;;;;;;8.23;4.93;;;19.60;99.90;;;;;;10340087;28;20382;-80
2022/07/01 23:21:17;;;;;;;6.47;5.40;;;19.60;99.90;;;;;;10358806;28;20194;-75
2022/07/01 23:26:42;;;;;;;7.65;5.75;;;19.60;99.90;;;;;;10359893;28;20225;-77
2022/07/01 23:32:04;;;;;;;7.38;5.63;;;19.60;99.90;;;;;;10354190;28;20194;-77
2022/07/01 23:37:27;;;;;;;8.43;5.25;;;19.60;99.90;;;;;;10354090;28;20524;-78
2022/07/01 23:42:49;;;;;;;7.18;4.82;;;19.70;99.90;;;;;;10354155;28;20520;-76
2022/07/01 23:48:10;;;;;;;7.65;5.60;;;19.70;99.90;;;;;;10360018;28;20232;-78
2022/07/01 23:53:32;;;;;;;6.50;4.70;;;19.60;99.90;;;;;;10361920;28;20205;-77
2022/07/01 23:58:53;;;;;;;6.10;4.88;;;19.60;99.90;;;;;;10377014;28;20209;-76
